Time;durP1;ratioP1;P1;durP2;ratioP2;P2;SDS_P1;SDS_P2;PMS_P1;PMS_P2;Temp;Humidity;BMP_temperature;BMP_pressure;BME280_temperature;BME280_humidity;BME280_pressure;Samples;Min_cycle;Max_cycle;Signal;HPM_P1;HPM_P2
2024/02/16 00:03:32;;;;;;;;;;;;;;;16.45;39.38;95563.34;10514722;28;1905;-59
2024/02/16 00:08:34;;;;;;;;;;;;;;;16.45;39.37;95563.34;10514901;28;1532;-60
2024/02/16 00:13:34;;;;;;;;;;;;;;;16.45;39.30;95563.34;10513303;28;1521;-60
2024/02/16 00:18:35;;;;;;;;;;;;;;;16.44;39.30;95559.16;10516463;28;1561;-58
2024/02/16 00:23:35;;;;;;;;;;;;;;;16.44;39.45;95561.78;10508933;28;1902;-59
2024/02/16 00:28:35;;;;;;;;;;;;;;;16.43;39.47;95558.34;10512290;28;1468;-60
2024/02/16 00:33:35;;;;;;;;;;;;;;;16.43;39.33;95547.91;10511650;28;1641;-59
2024/02/16 00:38:36;;;;;;;;;;;;;;;16.44;39.46;95543.47;10514786;28;1464;-59
2024/02/16 00:43:36;;;;;;;;;;;;;;;16.44;39.35;95549.47;10513172;28;1966;-60
2024/02/16 00:48:36;;;;;;;;;;;;;;;16.44;39.51;95548.69;10517033;28;1429;-59
2024/02/16 00:53:37;;;;;;;;;;;;;;;16.43;39.37;95547.09;10528735;28;2677;-59
2024/02/16 00:58:39;;;;;;;;;;;;;;;16.45;39.32;95545.81;10512939;28;1796;-60
2024/02/16 01:03:39;;;;;;;;;;;;;;;16.44;39.38;95538.22;10516929;28;1973;-59
2024/02/16 01:08:40;;;;;;;;;;;;;;;16.45;39.38;95539.78;10510434;28;1429;-59
2024/02/16 01:13:40;;;;;;;;;;;;;;;16.44;39.40;95535.59;10515723;28;1512;-60
2024/02/16 01:18:40;;;;;;;;;;;;;;;16.45;39.29;95534.56;10515334;28;1583;-59
2024/02/16 01:23:40;;;;;;;;;;;;;;;16.44;39.31;95533.00;10519618;28;1976;-59
2024/02/16 01:28:41;;;;;;;;;;;;;;;16.44;39.42;95538.22;10513328;28;1594;-59
2024/02/16 01:33:41;;;;;;;;;;;;;;;16.44;39.37;95546.06;10504652;28;1575;-59
2024/02/16 01:38:41;;;;;;;;;;;;;;;16.45;39.28;95548.44;10510191;28;1454;-60
2024/02/16 01:43:41;;;;;;;;;;;;;;;16.45;39.33;95545.81;10519356;28;1972;-59
2024/02/16 01:48:42;;;;;;;;;;;;;;;16.43;39.25;95534.81;10511022;28;2294;-60
2024/02/16 01:53:42;;;;;;;;;;;;;;;16.44;39.32;95522.53;10505625;28;2023;-59
2024/02/16 01:58:42;;;;;;;;;;;;;;;16.44;39.24;95522.53;10517104;28;2513;-59
2024/02/16 02:03:42;;;;;;;;;;;;;;;16.43;39.25;95528.78;10512906;28;1993;-60
2024/02/16 02:08:43;;;;;;;;;;;;;;;16.43;39.26;95524.34;10511866;28;1874;-59
2024/02/16 02:13:43;;;;;;;;;;;;;;;16.43;39.23;95515.69;10512605;28;1944;-59
2024/02/16 02:18:43;;;;;;;;;;;;;;;16.43;39.40;95515.69;10517366;28;1847;-60
2024/02/16 02:23:44;;;;;;;;;;;;;;;16.43;39.28;95513.09;10512682;28;1906;-59
2024/02/16 02:28:45;;;;;;;;;;;;;;;16.43;39.26;95518.31;10504077;28;1848;-59
2024/02/16 02:33:47;;;;;;;;;;;;;;;16.42;39.28;95514.94;10506005;28;1850;-59
2024/02/16 02:38:47;;;;;;;;;;;;;;;16.43;39.19;95505.25;10513149;28;1936;-59
2024/02/16 02:43:48;;;;;;;;;;;;;;;16.42;39.21;95501.84;10511386;28;2374;-59
2024/02/16 02:48:48;;;;;;;;;;;;;;;16.42;39.28;95504.47;10511494;28;1916;-59
2024/02/16 02:53:48;;;;;;;;;;;;;;;16.43;39.29;95505.25;10505671;28;1876;-60
2024/02/16 02:58:51;;;;;;;;;;;;;;;16.42;39.34;95509.72;10507101;28;2036;-60
2024/02/16 03:03:51;;;;;;;;;;;;;;;16.43;39.22;95510.47;10511395;28;1910;-60
2024/02/16 03:08:51;;;;;;;;;;;;;;;16.43;39.26;95510.47;10523099;28;1887;-60
2024/02/16 03:13:51;;;;;;;;;;;;;;;16.42;39.26;95514.94;10511380;28;1863;-60
2024/02/16 03:18:54;;;;;;;;;;;;;;;16.43;39.32;95518.31;10512386;28;1866;-60
2024/02/16 03:23:54;;;;;;;;;;;;;;;16.42;39.19;95520.16;10525744;28;1902;-60
2024/02/16 03:28:56;;;;;;;;;;;;;;;16.43;39.26;95518.31;10521680;28;1891;-60
2024/02/16 03:33:56;;;;;;;;;;;;;;;16.42;39.29;95528.03;10510170;28;1919;-60
2024/02/16 03:38:56;;;;;;;;;;;;;;;16.43;39.21;95523.56;10520373;28;2294;-58
2024/02/16 03:43:58;;;;;;;;;;;;;;;16.42;39.29;95524.59;10517784;28;1910;-60
2024/02/16 03:48:58;;;;;;;;;;;;;;;16.43;39.15;95531.41;10518510;28;1975;-58
2024/02/16 03:53:59;;;;;;;;;;;;;;;16.42;39.25;95527.22;10524472;28;2220;-60
2024/02/16 03:58:59;;;;;;;;;;;;;;;16.42;39.24;95532.47;10505985;28;1706;-60
2024/02/16 04:03:59;;;;;;;;;;;;;;;16.41;39.26;95534.28;10522161;28;1906;-60
2024/02/16 04:09:00;;;;;;;;;;;;;;;16.42;39.25;95535.88;10514243;28;1474;-60
2024/02/16 04:14:00;;;;;;;;;;;;;;;16.41;39.19;95539.50;10515406;28;1452;-60
2024/02/16 04:19:00;;;;;;;;;;;;;;;16.43;39.22;95536.63;10514990;28;2307;-60
2024/02/16 04:24:01;;;;;;;;;;;;;;;16.41;39.16;95536.09;10515023;28;1909;-60
2024/02/16 04:29:04;;;;;;;;;;;;;;;16.42;39.09;95540.31;10509733;28;1636;-60
2024/02/16 04:34:04;;;;;;;;;;;;;;;16.42;39.08;95550.78;10515826;28;1756;-59
2024/02/16 04:39:04;;;;;;;;;;;;;;;16.41;39.20;95549.19;10515191;28;1439;-60
2024/02/16 04:44:04;;;;;;;;;;;;;;;16.42;39.21;95553.38;10513209;28;1910;-60
2024/02/16 04:49:05;;;;;;;;;;;;;;;16.42;39.19;95545.53;10520028;28;1830;-59
2024/02/16 04:54:05;;;;;;;;;;;;;;;16.40;39.14;95548.41;10518318;28;1513;-60
2024/02/16 04:59:05;;;;;;;;;;;;;;;16.42;39.15;95551.56;10526723;28;1545;-60
2024/02/16 05:04:06;;;;;;;;;;;;;;;16.41;39.18;95543.94;10514746;28;2342;-60
2024/02/16 05:09:06;;;;;;;;;;;;;;;16.41;39.25;95546.56;10513295;28;1865;-60
2024/02/16 05:14:07;;;;;;;;;;;;;;;16.41;39.22;95546.56;10504958;28;1487;-61
2024/02/16 05:19:07;;;;;;;;;;;;;;;16.41;39.26;95557.03;10515086;28;1885;-62
2024/02/16 05:24:07;;;;;;;;;;;;;;;16.41;39.27;95551.78;10511812;28;1975;-60
2024/02/16 05:29:08;;;;;;;;;;;;;;;16.41;39.20;95549.19;10502295;28;2011;-61
2024/02/16 05:34:08;;;;;;;;;;;;;;;16.41;39.23;95551.78;10513035;28;1482;-60
2024/02/16 05:39:26;;;;;;;;;;;;;;;16.40;39.27;95551.03;10505532;28;1483;-59
2024/02/16 05:44:26;;;;;;;;;;;;;;;16.40;39.17;95545.00;10507239;28;2392;-60
2024/02/16 05:49:27;;;;;;;;;;;;;;;16.40;39.20;95547.63;10518354;28;1624;-60
2024/02/16 05:54:27;;;;;;;;;;;;;;;16.41;39.07;95546.56;10514140;28;1513;-60
2024/02/16 05:59:27;;;;;;;;;;;;;;;16.40;39.16;95553.66;10513907;28;1629;-60
2024/02/16 06:04:28;;;;;;;;;;;;;;;16.41;39.16;95564.88;10517172;28;1905;-62
2024/02/16 06:09:33;;;;;;;;;;;;;;;16.40;39.15;95564.09;10515346;28;1494;-60
2024/02/16 06:14:33;;;;;;;;;;;;;;;16.41;39.16;95570.09;10515830;28;1649;-60
2024/02/16 06:19:34;;;;;;;;;;;;;;;16.41;39.25;95568.28;10524425;28;1564;-60
2024/02/16 06:24:34;;;;;;;;;;;;;;;16.40;39.20;95573.78;10514656;28;1971;-60
2024/02/16 06:29:34;;;;;;;;;;;;;;;16.40;39.13;95581.63;10515679;28;2248;-60
2024/02/16 06:34:35;;;;;;;;;;;;;;;16.41;39.11;95598.88;10517132;28;1634;-58
2024/02/16 06:39:36;;;;;;;;;;;;;;;16.40;39.08;95605.16;10523457;28;1581;-59
2024/02/16 06:44:36;;;;;;;;;;;;;;;16.40;39.19;95619.03;10518504;28;1906;-59
2024/02/16 06:49:36;;;;;;;;;;;;;;;16.40;39.07;95624.28;10519865;28;1529;-59
2024/02/16 06:54:36;;;;;;;;;;;;;;;16.41;39.09;95638.13;10518196;28;1678;-59
2024/02/16 06:59:37;;;;;;;;;;;;;;;16.41;39.19;95643.34;10512277;28;1470;-59
2024/02/16 07:04:39;;;;;;;;;;;;;;;16.40;39.03;95647.03;10513481;28;1971;-60
2024/02/16 07:09:39;;;;;;;;;;;;;;;16.41;39.12;95653.81;10511738;28;1528;-59
2024/02/16 07:14:43;;;;;;;;;;;;;;;16.40;39.11;95649.63;10522777;28;1476;-59
2024/02/16 07:19:43;;;;;;;;;;;;;;;16.39;39.12;95648.84;10529740;27;1626;-59
2024/02/16 07:24:43;;;;;;;;;;;;;;;16.39;39.11;95655.91;10511607;28;2446;-59
2024/02/16 07:29:44;;;;;;;;;;;;;;;16.40;39.09;95655.66;10513694;28;1704;-59
2024/02/16 07:34:47;;;;;;;;;;;;;;;16.40;39.05;95660.09;10516311;28;1616;-59
2024/02/16 07:39:47;;;;;;;;;;;;;;;16.39;39.12;95664.53;10517286;28;1653;-60
2024/02/16 07:44:48;;;;;;;;;;;;;;;16.40;39.04;95673.19;10513946;28;1909;-60
2024/02/16 07:49:49;;;;;;;;;;;;;;;16.40;39.14;95668.75;10506587;28;1670;-59
2024/02/16 07:54:51;;;;;;;;;;;;;;;16.40;39.17;95668.75;10510209;28;1713;-59
2024/02/16 07:59:51;;;;;;;;;;;;;;;16.41;39.22;95672.13;10510432;28;1461;-59
2024/02/16 08:04:51;;;;;;;;;;;;;;;16.40;39.08;95673.19;10515510;28;2315;-59
2024/02/16 08:09:52;;;;;;;;;;;;;;;16.40;39.20;95673.19;10509671;28;1601;-59
2024/02/16 08:14:52;;;;;;;;;;;;;;;16.40;39.18;95678.41;10509467;28;1474;-59
2024/02/16 08:19:53;;;;;;;;;;;;;;;16.41;39.24;95690.44;10515540;28;1735;-60
2024/02/16 08:24:54;;;;;;;;;;;;;;;16.40;39.20;95684.44;10524484;28;1906;-60
2024/02/16 08:29:54;;;;;;;;;;;;;;;16.40;39.19;95675.78;10505545;28;1626;-60
2024/02/16 08:34:55;;;;;;;;;;;;;;;16.40;39.21;95681.03;10515208;28;1663;-60
2024/02/16 08:39:56;;;;;;;;;;;;;;;16.41;39.19;95687.81;10515487;28;1464;-61
2024/02/16 08:44:58;;;;;;;;;;;;;;;16.41;39.34;95693.06;10513118;28;2565;-61
2024/02/16 08:49:58;;;;;;;;;;;;;;;16.42;39.17;95692.03;10521098;28;1569;-60
2024/02/16 08:54:58;;;;;;;;;;;;;;;16.42;39.26;95694.66;10523681;28;1846;-60
2024/02/16 08:59:58;;;;;;;;;;;;;;;16.42;39.27;95689.41;10517248;28;1781;-60
2024/02/16 09:04:59;;;;;;;;;;;;;;;16.41;39.26;95693.84;10511292;28;1963;-60
2024/02/16 09:09:59;;;;;;;;;;;;;;;16.43;39.19;95693.59;10513674;28;1486;-60
2024/02/16 09:14:59;;;;;;;;;;;;;;;16.43;39.21;95704.06;10513883;28;1634;-61
2024/02/16 09:20:00;;;;;;;;;;;;;;;16.44;39.21;95697.81;10513828;28;1496;-60
2024/02/16 09:25:01;;;;;;;;;;;;;;;16.44;39.17;95708.28;10503560;28;1902;-60
2024/02/16 09:30:02;;;;;;;;;;;;;;;16.43;39.23;95704.88;10505891;28;2327;-60
2024/02/16 09:35:03;;;;;;;;;;;;;;;16.45;39.20;95702.78;10506064;28;1944;-60
2024/02/16 09:40:04;;;;;;;;;;;;;;;16.45;39.29;95697.56;10513609;28;1529;-60
2024/02/16 09:45:05;;;;;;;;;;;;;;;16.44;39.30;95696.00;10513907;28;1902;-60
2024/02/16 09:50:06;;;;;;;;;;;;;;;16.47;39.30;95699.91;10515908;28;1474;-60
2024/02/16 09:55:12;;;;;;;;;;;;;;;16.48;39.31;95693.66;10508639;28;1556;-61
2024/02/16 10:00:13;;;;;;;;;;;;;;;16.49;39.25;95700.44;10512627;28;1459;-60
2024/02/16 10:05:17;;;;;;;;;;;;;;;16.50;39.44;95710.72;10511953;28;1914;-60
2024/02/16 10:10:27;;;;;;;;;;;;;;;16.53;39.54;95704.19;10514391;28;1521;-60
2024/02/16 10:15:27;;;;;;;;;;;;;;;16.53;39.49;95702.38;10524458;28;1504;-60
2024/02/16 10:20:28;;;;;;;;;;;;;;;16.54;39.50;95706.56;10522882;28;2826;-60
2024/02/16 10:25:28;;;;;;;;;;;;;;;16.56;39.64;95701.09;10520348;28;1862;-60
2024/02/16 10:30:29;;;;;;;;;;;;;;;16.58;39.45;95702.41;10513529;28;1647;-60
2024/02/16 10:35:29;;;;;;;;;;;;;;;16.61;39.49;95703.75;10517049;28;1621;-61
2024/02/16 10:40:30;;;;;;;;;;;;;;;16.62;39.60;95702.69;10520590;28;1901;-60
2024/02/16 10:45:34;;;;;;;;;;;;;;;16.64;39.53;95706.66;10515969;28;1721;-60
2024/02/16 10:50:35;;;;;;;;;;;;;;;16.65;39.65;95707.44;10515965;28;1447;-59
2024/02/16 10:55:35;;;;;;;;;;;;;;;16.66;39.60;95701.97;10521238;28;1701;-60
2024/02/16 11:00:35;;;;;;;;;;;;;;;16.68;39.67;95696.47;10516459;28;2427;-60
2024/02/16 11:05:36;;;;;;;;;;;;;;;16.70;39.67;95699.63;10518058;28;1472;-61
2024/02/16 11:10:36;;;;;;;;;;;;;;;16.70;39.75;95704.84;10530597;28;1544;-60
2024/02/16 11:15:36;;;;;;;;;;;;;;;16.72;39.76;95690.50;10521043;28;1570;-60
2024/02/16 11:20:41;;;;;;;;;;;;;;;16.74;39.71;95685.00;10516528;28;1938;-60
2024/02/16 11:25:49;;;;;;;;;;;;;;;16.75;39.72;95689.22;10513428;28;1468;-61
2024/02/16 11:30:49;;;;;;;;;;;;;;;16.76;39.89;95680.28;10531651;28;1667;-60
2024/02/16 11:35:54;;;;;;;;;;;;;;;16.79;39.81;95670.13;10511746;28;1704;-58
2024/02/16 11:40:55;;;;;;;;;;;;;;;16.81;39.88;95669.88;10515808;28;1914;-60
2024/02/16 11:45:55;;;;;;;;;;;;;;;16.83;39.84;95673.84;10517745;28;1475;-60
2024/02/16 11:50:59;;;;;;;;;;;;;;;16.84;39.81;95666.75;10509119;28;1501;-60
2024/02/16 11:56:00;;;;;;;;;;;;;;;16.86;39.97;95662.03;10519292;28;2396;-60
2024/02/16 12:01:00;;;;;;;;;;;;;;;16.88;39.93;95665.19;10516070;28;1977;-60
2024/02/16 12:06:01;;;;;;;;;;;;;;;16.89;39.89;95662.34;10523149;28;1464;-61
2024/02/16 12:11:02;;;;;;;;;;;;;;;16.91;39.95;95669.94;10514118;28;1850;-60
2024/02/16 12:16:02;;;;;;;;;;;;;;;16.92;40.00;95671.50;10510364;28;1661;-60
2024/02/16 12:21:06;;;;;;;;;;;;;;;16.93;40.01;95667.88;10513196;28;1977;-62
2024/02/16 12:26:06;;;;;;;;;;;;;;;16.92;39.98;95668.88;10512484;28;1559;-61
2024/02/16 12:31:06;;;;;;;;;;;;;;;16.91;39.85;95677.78;10518457;28;1429;-60
2024/02/16 12:36:07;;;;;;;;;;;;;;;16.89;39.96;95672.81;10510876;28;1517;-60
2024/02/16 12:41:07;;;;;;;;;;;;;;;16.89;40.00;95667.59;10517333;28;1914;-60
2024/02/16 12:46:07;;;;;;;;;;;;;;;16.89;40.02;95677.25;10505390;28;1483;-60
2024/02/16 12:51:08;;;;;;;;;;;;;;;16.87;39.85;95672.28;10510558;28;1464;-61
2024/02/16 12:56:08;;;;;;;;;;;;;;;16.89;40.02;95679.88;10506956;28;1458;-60
2024/02/16 13:01:09;;;;;;;;;;;;;;;16.88;39.89;95673.06;10521722;28;2703;-61
2024/02/16 13:06:10;;;;;;;;;;;;;;;16.90;40.01;95665.72;10505991;28;1740;-61
2024/02/16 13:11:10;;;;;;;;;;;;;;;16.92;39.98;95674.13;10508292;28;1630;-60
2024/02/16 13:16:10;;;;;;;;;;;;;;;16.91;39.94;95669.94;10505795;28;1456;-60
2024/02/16 13:21:10;;;;;;;;;;;;;;;16.93;39.95;95680.97;10513332;28;1913;-60
2024/02/16 13:26:12;;;;;;;;;;;;;;;16.94;39.98;95688.56;10519514;28;1550;-60
2024/02/16 13:31:13;;;;;;;;;;;;;;;16.98;39.89;95689.63;10510841;28;1626;-60
2024/02/16 13:36:13;;;;;;;;;;;;;;;17.01;39.96;95691.75;10514140;28;1450;-60
2024/02/16 13:41:13;;;;;;;;;;;;;;;17.03;39.92;95683.63;10526227;28;1914;-60
2024/02/16 13:46:14;;;;;;;;;;;;;;;17.05;40.00;95689.41;10522033;28;2681;-60
2024/02/16 13:51:14;;;;;;;;;;;;;;;17.07;40.02;95695.19;10505699;28;1466;-60
2024/02/16 13:56:15;;;;;;;;;;;;;;;17.08;40.00;95694.16;10507592;28;1541;-60
2024/02/16 14:01:15;;;;;;;;;;;;;;;17.07;39.97;95705.66;10520771;28;1902;-61
2024/02/16 14:06:16;;;;;;;;;;;;;;;17.06;40.06;95707.47;10507029;28;1783;-61
2024/02/16 14:11:16;;;;;;;;;;;;;;;17.04;39.92;95706.94;10504656;28;1533;-60
2024/02/16 14:16:16;;;;;;;;;;;;;;;17.03;39.93;95715.06;10507974;28;1540;-60
2024/02/16 14:21:16;;;;;;;;;;;;;;;17.03;39.95;95720.28;10503195;28;1910;-60
2024/02/16 14:26:19;;;;;;;;;;;;;;;17.01;40.09;95720.56;10508478;28;2839;-60
2024/02/16 14:31:22;;;;;;;;;;;;;;;16.99;40.06;95722.63;10515755;28;1803;-60
2024/02/16 14:36:22;;;;;;;;;;;;;;;16.99;39.95;95719.22;10506499;28;1516;-60
2024/02/16 14:41:22;;;;;;;;;;;;;;;16.99;39.96;95719.22;10515980;28;1906;-60
2024/02/16 14:46:26;;;;;;;;;;;;;;;16.99;39.97;95725.25;10504082;28;1478;-61
2024/02/16 14:51:26;;;;;;;;;;;;;;;17.00;39.99;95731.28;10506145;28;1495;-60
2024/02/16 14:56:27;;;;;;;;;;;;;;;17.00;40.08;95726.06;10518402;28;1638;-60
2024/02/16 15:01:27;;;;;;;;;;;;;;;16.99;40.08;95733.13;10513295;28;1910;-60
2024/02/16 15:06:29;;;;;;;;;;;;;;;16.98;40.03;95736.00;10520809;28;1534;-60
2024/02/16 15:11:29;;;;;;;;;;;;;;;16.98;40.13;95738.59;10522207;28;2797;-60
2024/02/16 15:16:29;;;;;;;;;;;;;;;16.97;40.12;95737.81;10516713;28;1469;-60
2024/02/16 15:21:29;;;;;;;;;;;;;;;16.96;40.07;95735.44;10520697;28;1960;-61
2024/02/16 15:26:30;;;;;;;;;;;;;;;16.95;40.20;95745.13;10515148;28;1535;-60
2024/02/16 15:31:30;;;;;;;;;;;;;;;16.95;40.17;95741.72;10517370;28;1561;-60
2024/02/16 15:36:30;;;;;;;;;;;;;;;16.93;40.14;95747.22;10510893;28;1764;-60
2024/02/16 15:41:31;;;;;;;;;;;;;;;16.95;40.19;95752.19;10519260;28;1969;-60
2024/02/16 15:46:33;;;;;;;;;;;;;;;16.94;40.13;95759.25;10517761;28;1555;-61
2024/02/16 15:51:34;;;;;;;;;;;;;;;16.93;40.13;95775.22;10514936;28;2966;-60
2024/02/16 15:56:34;;;;;;;;;;;;;;;16.93;40.09;95789.09;10509607;28;1565;-60
2024/02/16 16:01:35;;;;;;;;;;;;;;;16.92;39.95;95789.31;10515406;28;1965;-61
2024/02/16 16:06:35;;;;;;;;;;;;;;;16.92;40.14;95797.19;10519775;28;1771;-60
2024/02/16 16:11:36;;;;;;;;;;;;;;;16.92;40.08;95808.44;10512718;28;1555;-60
2024/02/16 16:16:36;;;;;;;;;;;;;;;16.92;40.10;95802.41;10522700;28;1584;-58
2024/02/16 16:21:36;;;;;;;;;;;;;;;16.91;40.04;95806.88;10525910;28;1902;-60
2024/02/16 16:26:37;;;;;;;;;;;;;;;16.90;39.99;95813.16;10514816;28;1465;-60
2024/02/16 16:31:38;;;;;;;;;;;;;;;16.91;40.04;95816.56;10517740;28;1519;-60
2024/02/16 16:36:39;;;;;;;;;;;;;;;16.91;39.95;95817.38;10514082;28;2934;-60
2024/02/16 16:41:40;;;;;;;;;;;;;;;16.91;39.91;95821.81;10521491;28;1905;-60
2024/02/16 16:46:40;;;;;;;;;;;;;;;16.90;40.01;95831.47;10508287;28;1472;-61
2024/02/16 16:51:40;;;;;;;;;;;;;;;16.90;39.93;95841.16;10517784;28;1720;-60
2024/02/16 16:56:41;;;;;;;;;;;;;;;16.91;39.84;95845.38;10508893;28;1603;-61
2024/02/16 17:01:41;;;;;;;;;;;;;;;16.91;39.85;95858.47;10518482;28;1902;-60
2024/02/16 17:06:42;;;;;;;;;;;;;;;16.90;39.85;95862.91;10513954;28;1503;-60
2024/02/16 17:11:42;;;;;;;;;;;;;;;16.90;39.83;95873.38;10515170;28;1435;-61
2024/02/16 17:16:45;;;;;;;;;;;;;;;16.90;39.81;95880.44;10506279;28;2901;-62
2024/02/16 17:21:45;;;;;;;;;;;;;;;16.89;39.87;95895.38;10507924;28;1917;-60
2024/02/16 17:26:46;;;;;;;;;;;;;;;16.89;39.86;95903.22;10506406;28;1650;-60
2024/02/16 17:31:47;;;;;;;;;;;;;;;16.89;39.88;95908.47;10514397;28;1732;-61
2024/02/16 17:36:48;;;;;;;;;;;;;;;16.90;39.82;95914.47;10520676;28;1492;-60
2024/02/16 17:41:48;;;;;;;;;;;;;;;16.89;39.77;95918.94;10507000;28;1973;-60
2024/02/16 17:46:49;;;;;;;;;;;;;;;16.90;39.85;95928.34;10512084;28;1567;-60
2024/02/16 17:51:51;;;;;;;;;;;;;;;16.89;39.83;95933.84;10498387;28;1457;-59
2024/02/16 17:56:51;;;;;;;;;;;;;;;16.89;39.81;95934.63;10506830;28;1471;-60
2024/02/16 18:01:51;;;;;;;;;;;;;;;16.88;39.74;95940.09;10512799;28;2827;-60
2024/02/16 18:06:51;;;;;;;;;;;;;;;16.88;39.86;95942.72;10513940;28;1848;-60
2024/02/16 18:11:52;;;;;;;;;;;;;;;16.89;39.73;95960.03;10501984;28;1529;-61
2024/02/16 18:16:52;;;;;;;;;;;;;;;16.89;39.89;95973.13;10509376;28;1669;-60
2024/02/16 18:21:52;;;;;;;;;;;;;;;16.89;39.80;95973.13;10510978;28;1905;-60
2024/02/16 18:26:53;;;;;;;;;;;;;;;16.90;39.82;95977.31;10509561;28;1699;-61
2024/02/16 18:31:53;;;;;;;;;;;;;;;16.87;39.74;95972.56;10513353;28;1632;-60
2024/02/16 18:36:53;;;;;;;;;;;;;;;16.88;39.76;95979.38;10519809;28;1493;-60
2024/02/16 18:41:53;;;;;;;;;;;;;;;16.88;39.86;95974.13;10533679;28;2439;-60
2024/02/16 18:46:54;;;;;;;;;;;;;;;16.88;39.80;95984.59;10520224;28;1448;-60
2024/02/16 18:51:55;;;;;;;;;;;;;;;16.89;39.57;95987.00;10524133;28;1695;-60
2024/02/16 18:56:55;;;;;;;;;;;;;;;16.88;39.87;95998.50;10521840;28;1666;-60
2024/02/16 19:02:01;;;;;;;;;;;;;;;16.87;39.80;95998.75;10524195;28;1965;-61
2024/02/16 19:07:01;;;;;;;;;;;;;;;16.87;39.72;95998.75;10515893;28;1516;-60
2024/02/16 19:12:01;;;;;;;;;;;;;;;16.86;39.86;96000.56;10515281;28;1800;-60
2024/02/16 19:17:01;;;;;;;;;;;;;;;16.87;39.86;96006.59;10511405;28;1494;-60
2024/02/16 19:22:03;;;;;;;;;;;;;;;16.87;39.86;96011.84;10519356;28;2507;-60
2024/02/16 19:27:03;;;;;;;;;;;;;;;16.86;39.92;96008.44;10516180;28;1414;-60
2024/02/16 19:32:04;;;;;;;;;;;;;;;16.87;39.88;96014.47;10516134;28;1887;-64
2024/02/16 19:37:04;;;;;;;;;;;;;;;16.87;39.81;96017.09;10522831;28;1524;-60
2024/02/16 19:42:04;;;;;;;;;;;;;;;16.88;39.86;96026.50;10524076;28;1975;-60
2024/02/16 19:47:05;;;;;;;;;;;;;;;16.87;39.81;96030.16;10513941;28;1792;-60
2024/02/16 19:52:05;;;;;;;;;;;;;;;16.88;39.83;96026.50;10520169;28;1732;-60
2024/02/16 19:57:05;;;;;;;;;;;;;;;16.87;39.87;96035.41;10516434;28;1479;-60
2024/02/16 20:02:06;;;;;;;;;;;;;;;16.87;39.78;96036.22;10513161;28;1960;-60
2024/02/16 20:07:06;;;;;;;;;;;;;;;16.88;39.78;96044.84;10517815;28;2588;-60
2024/02/16 20:12:09;;;;;;;;;;;;;;;16.87;39.87;96051.91;10523088;28;1540;-60
2024/02/16 20:17:09;;;;;;;;;;;;;;;16.87;39.78;96054.53;10516199;28;1421;-60
2024/02/16 20:22:09;;;;;;;;;;;;;;;16.88;39.91;96060.53;10517533;28;1894;-61
2024/02/16 20:27:10;;;;;;;;;;;;;;;16.86;39.87;96054.75;10512799;28;1909;-61
2024/02/16 20:32:11;;;;;;;;;;;;;;;16.87;39.85;96062.38;10511106;28;1588;-58
2024/02/16 20:37:11;;;;;;;;;;;;;;;16.87;39.56;96062.38;10508507;28;1713;-60
2024/02/16 20:42:11;;;;;;;;;;;;;;;16.87;39.89;96072.06;10522299;28;1969;-61
2024/02/16 20:47:12;;;;;;;;;;;;;;;16.86;39.89;96066.03;10513097;28;1806;-61
2024/02/16 20:52:13;;;;;;;;;;;;;;;16.87;39.86;96070.25;10507620;28;1403;-60
2024/02/16 20:57:13;;;;;;;;;;;;;;;16.87;39.88;96077.31;10522574;28;1454;-60
2024/02/16 21:02:13;;;;;;;;;;;;;;;16.87;39.96;96078.09;10523718;28;1968;-60
2024/02/16 21:07:15;;;;;;;;;;;;;;;16.88;39.81;96076.25;10518798;28;1644;-60
2024/02/16 21:12:16;;;;;;;;;;;;;;;16.88;39.82;96079.66;10516982;28;1416;-60
2024/02/16 21:17:16;;;;;;;;;;;;;;;16.89;39.86;96080.47;10521445;28;1662;-60
2024/02/16 21:22:16;;;;;;;;;;;;;;;16.88;40.08;96086.72;10521191;28;1957;-60
2024/02/16 21:27:17;;;;;;;;;;;;;;;16.87;39.82;96091.19;10512458;28;1660;-59
2024/02/16 21:32:17;;;;;;;;;;;;;;;16.88;39.87;96091.97;10517589;28;1655;-60
2024/02/16 21:37:17;;;;;;;;;;;;;;;16.87;39.81;96103.47;10516256;28;1511;-60
2024/02/16 21:42:18;;;;;;;;;;;;;;;16.87;39.89;96104.28;10508194;28;2359;-60
2024/02/16 21:47:18;;;;;;;;;;;;;;;16.88;39.81;96105.06;10513016;28;1505;-60
2024/02/16 21:52:18;;;;;;;;;;;;;;;16.87;39.87;96111.34;10523044;28;1586;-60
2024/02/16 21:57:18;;;;;;;;;;;;;;;16.89;39.81;96111.88;10509878;28;1771;-60
2024/02/16 22:02:19;;;;;;;;;;;;;;;16.88;39.89;96115.53;10504805;28;1981;-60
2024/02/16 22:07:19;;;;;;;;;;;;;;;16.88;39.97;96120.75;10512325;28;1646;-60
2024/02/16 22:12:19;;;;;;;;;;;;;;;16.87;39.88;96117.38;10519120;28;1576;-60
2024/02/16 22:17:19;;;;;;;;;;;;;;;16.88;39.87;96131.22;10517051;28;1812;-60
2024/02/16 22:22:20;;;;;;;;;;;;;;;16.87;39.94;96129.66;10515955;28;1971;-60
2024/02/16 22:27:20;;;;;;;;;;;;;;;16.88;39.86;96131.22;10514419;28;1461;-60
2024/02/16 22:32:20;;;;;;;;;;;;;;;16.87;39.82;96140.94;10522175;28;2260;-60
2024/02/16 22:37:20;;;;;;;;;;;;;;;16.88;39.83;96146.94;10513587;28;1679;-60
2024/02/16 22:42:21;;;;;;;;;;;;;;;16.89;39.90;96148.53;10517783;28;1976;-58
2024/02/16 22:47:21;;;;;;;;;;;;;;;16.88;39.83;96152.19;10509679;28;1572;-59
2024/02/16 22:52:21;;;;;;;;;;;;;;;16.89;39.90;96153.78;10527477;28;1491;-60
2024/02/16 22:57:21;;;;;;;;;;;;;;;16.89;39.87;96157.19;10524766;28;1566;-60
2024/02/16 23:02:22;;;;;;;;;;;;;;;16.89;39.87;96166.88;10519819;28;1898;-59
2024/02/16 23:07:22;;;;;;;;;;;;;;;16.89;39.93;96165.06;10510825;28;1469;-60
2024/02/16 23:12:23;;;;;;;;;;;;;;;16.90;39.87;96171.88;10512753;28;1504;-60
2024/02/16 23:17:24;;;;;;;;;;;;;;;16.89;39.94;96174.72;10510781;28;1660;-60
2024/02/16 23:22:24;;;;;;;;;;;;;;;16.90;39.89;96176.31;10526435;28;1898;-60
2024/02/16 23:27:24;;;;;;;;;;;;;;;16.90;40.01;96186.78;10520263;28;2303;-60
2024/02/16 23:32:25;;;;;;;;;;;;;;;16.89;39.84;96186.00;10517277;28;1482;-60
2024/02/16 23:37:25;;;;;;;;;;;;;;;16.89;39.86;96188.63;10514216;28;1502;-60
2024/02/16 23:42:25;;;;;;;;;;;;;;;16.90;39.95;96197.25;10528959;28;1906;-60
2024/02/16 23:47:26;;;;;;;;;;;;;;;16.89;39.96;96211.38;10517590;28;1577;-59
2024/02/16 23:52:28;;;;;;;;;;;;;;;16.89;39.93;96209.56;10531012;28;1670;-60
2024/02/16 23:57:29;;;;;;;;;;;;;;;16.90;39.88;96208.53;10519485;28;1728;-61
